Irwinville, GA (31760)

3:13 PM EDT on July 29, 2014 (GMT -0400)
Fitzgerald Municipal (KFZG) Elev 364 ft | 31.68 °N, 83.27 °W | Change Station

Current weather conditions updated 18 minutes ago

Scattered Clouds
Scattered Clouds
89 °F
Feels Like 88 °F
N
10
Wind Variable Wind from NNW
Gusts 17 mph

Today is forecast to be Much Cooler than yesterday.

Today
High -- | Low -- °F
--% Chance of Precip.
Yesterday
High -- | Low -- °F
Precip. -- in
6:47 AM 8:32 PM
Waxing Crescent, 7% visible
Pressure 29.97 in
Visibility 10.0 miles
Clouds Scattered Clouds 6500 ft
Heat Index 88 °F
Dew Point 57 °F
Humidity 33%
Rainfall 0.00 in
Snow Depth Not available.
UV 10 out of 12
Pollen 6.00 out of 12
Air Quality Not available.
Flu Activity Not available.
METAR KFZG 291855Z AUTO 33009G15KT 10SM SCT065 32/14 A2997 RMK AO2 T03190138

More Conditions Fewer Conditions

Pressure 29.97 in
Visibility 10.0 miles
Clouds Scattered Clouds 6500 ft
Heat Index 88 °F
Dew Point 57 °F
Humidity 33%
Rainfall 0.00 in
Snow Depth Not available.
UV 10 out of 12
Pollen 6.00 out of 12
Air Quality Not available.
Flu Activity Not available.
METAR KFZG 291855Z AUTO 33009G15KT 10SM SCT065 32/14 A2997 RMK AO2 T03190138

More Conditions Fewer Conditions

10-Day Weather Forecast

Almanac

Astronomy

Jul. 29, 2014 Rise Set
Actual Time 6:47 AM EDT 8:32 PM EDT
Civil Twilight 6:20 AM EDT 8:58 PM EDT
Nautical Twilight 5:48 AM EDT 9:30 PM EDT
Astronomical Twilight 5:14 AM EDT 10:04 PM EDT
Moon 9:10 AM EDT 9:58 PM EDT
Length of Visible Light 14h 37m
Length of Day
13h 44m
Tomorrow will be 1m 23s shorter.
Waxing Crescent, 7% of the Moon is Illuminated
Today
Waxing Crescent
Aug 3
First Quarter
Aug 10
Full
Aug 17
Last Quarter
Aug 25
New

Today's Extremes

State Highs State Lows

Community

WunderPhotos

Upload Photos

1,738,829 photos uploaded!

WunderBlogs® & News

By Dr. Jeff Masters
Director of Meteorology, Weather Underground
By Kari Strenfel
Meteorologist, Weather Underground
By Christopher C. Burt
Weather Historian, Weather Underground
July 29, 2014
July 29, 2014
July 29, 2014

Nearby

Snow Depth

Station Depth Elevation
No new snow has been reported.

Earthquake Activity

City Distance Mag. Time & Date
No recent earthquake activity has been reported nearby.
Minimum magnitude displayed is 2.5.

Coastal Water Temperatures

Place Temperature
No Stations Reporting

Nearby Weather Stations

Station Location Temp. Heat Index Dew Point Humidity Wind Precip. Elev Updated Type
Forest Lakes, Tifton, GA 88.0 °F 90 °F 65 °F 47% North  at  1.0 mph 0.00 in / hr 329 ft 3:10 PM EDT Normal
APRSWXNET Ashburn GA, Ashburn, GA 90 °F 93 °F 66 °F 46% WNW  at  1 mph 0.00 in / hr 452 ft 2:33 PM EDT MADIS
Wood Triple Lake Road, Tifton, GA 89.2 °F 91 °F 64 °F 44% NW  at  2.0 mph 0.00 in / hr 322 ft 3:10 PM EDT Normal
Abbeville, GA, Abbeville, GA 91.4 °F 93 °F 64 °F 40% West  at  4.7 mph - / hr 253 ft 3:11 PM EDT Normal

Show More Stations Show Fewer Stations